createdAt,value
2023-04-07T00:01:53.329Z,34.71
2023-04-07T00:04:20.032Z,34.82
2023-04-07T00:06:46.597Z,34.96
2023-04-07T00:09:13.131Z,34.88
2023-04-07T00:11:39.646Z,35.07
2023-04-07T00:14:06.211Z,34.84
2023-04-07T00:16:32.692Z,34.97
2023-04-07T00:18:59.340Z,34.91
2023-04-07T00:21:27.249Z,35.16
2023-04-07T00:23:53.923Z,35.13
2023-04-07T00:26:20.480Z,35.26
2023-04-07T00:28:46.973Z,34.96
2023-04-07T00:31:13.645Z,34.93
2023-04-07T00:33:40.124Z,35.00
2023-04-07T00:36:06.803Z,35.04
2023-04-07T00:38:33.302Z,35.38
2023-04-07T00:41:00.187Z,35.41
2023-04-07T00:43:27.078Z,35.14
2023-04-07T00:45:53.899Z,35.15
2023-04-07T00:48:20.716Z,35.33
2023-04-07T00:50:47.310Z,35.18
2023-04-07T00:53:14.585Z,35.37
2023-04-07T00:55:41.572Z,35.54
2023-04-07T00:58:08.144Z,35.52
2023-04-07T01:00:38.180Z,35.24
2023-04-07T01:03:09.840Z,35.50
2023-04-07T01:05:36.707Z,35.29
2023-04-07T01:08:11.204Z,35.58
2023-04-07T01:10:37.692Z,35.47
2023-04-07T01:13:13.143Z,35.61
2023-04-07T01:15:40.639Z,35.81
2023-04-07T01:18:11.353Z,35.43
2023-04-07T01:20:38.726Z,35.40
2023-04-07T01:23:07.111Z,35.80
2023-04-07T01:25:36.629Z,35.54
2023-04-07T01:28:14.305Z,35.53
2023-04-07T01:30:41.962Z,35.70
2023-04-07T01:33:10.153Z,35.53
2023-04-07T01:35:37.330Z,35.58
2023-04-07T01:38:05.274Z,35.91
2023-04-07T01:40:33.528Z,35.73
2023-04-07T01:43:00.974Z,35.64
2023-04-07T01:45:27.812Z,35.64
2023-04-07T01:47:55.017Z,35.60
2023-04-07T01:50:21.884Z,35.96
2023-04-07T01:52:48.651Z,35.90
2023-04-07T01:55:15.779Z,35.98
2023-04-07T01:57:42.349Z,35.92
2023-04-07T02:00:09.113Z,35.70
2023-04-07T02:02:37.172Z,35.75
2023-04-07T02:05:05.936Z,35.73
2023-04-07T02:07:39.737Z,35.79
2023-04-07T02:10:07.285Z,35.78
2023-04-07T02:12:34.621Z,36.17
2023-04-07T02:15:01.574Z,36.10
2023-04-07T02:17:28.623Z,36.03
2023-04-07T02:19:56.564Z,36.09
2023-04-07T02:22:23.152Z,35.91
2023-04-07T02:24:50.086Z,35.87
2023-04-07T02:27:17.311Z,35.96
2023-04-07T02:29:43.868Z,36.26
2023-04-07T02:32:10.691Z,36.28
2023-04-07T02:34:37.274Z,36.06
2023-04-07T02:37:03.834Z,36.21
2023-04-07T02:39:30.621Z,36.20
2023-04-07T02:41:57.085Z,36.05
2023-04-07T02:44:23.585Z,36.16
2023-04-07T02:46:50.087Z,36.45
2023-04-07T02:49:16.636Z,36.45
2023-04-07T02:51:43.174Z,36.22
2023-04-07T02:54:09.658Z,36.08
2023-04-07T02:56:36.220Z,36.21
2023-04-07T02:59:02.659Z,36.37
2023-04-07T03:01:29.331Z,36.57
2023-04-07T03:03:56.284Z,36.63
2023-04-07T03:06:23.025Z,36.54
2023-04-07T03:08:49.519Z,36.38
2023-04-07T03:11:16.501Z,36.50
2023-04-07T03:13:43.032Z,36.43
2023-04-07T03:16:09.535Z,36.63
2023-04-07T03:18:36.058Z,36.48
2023-04-07T03:21:03.170Z,36.61
2023-04-07T03:23:29.743Z,36.82
2023-04-07T03:25:57.871Z,36.66
2023-04-07T03:28:24.381Z,36.95
2023-04-07T03:30:51.030Z,36.59
2023-04-07T03:33:17.590Z,36.82
2023-04-07T03:35:44.105Z,36.74
2023-04-07T03:38:11.400Z,36.68
2023-04-07T03:40:38.053Z,37.18
2023-04-07T03:43:05.960Z,37.10
2023-04-07T03:45:33.688Z,36.80
2023-04-07T03:48:00.593Z,37.14
2023-04-07T03:50:29.662Z,36.90
2023-04-07T03:52:56.177Z,37.09
2023-04-07T03:55:22.862Z,38.78
2023-04-07T03:57:49.370Z,40.09
2023-04-07T04:00:15.957Z,40.95
2023-04-07T04:02:42.538Z,41.84
2023-04-07T04:05:09.144Z,42.46
2023-04-07T04:07:36.154Z,43.26
2023-04-07T04:10:02.628Z,43.24
2023-04-07T04:12:29.319Z,43.44
2023-04-07T04:14:55.963Z,44.70
2023-04-07T04:17:22.465Z,42.62
2023-04-07T04:19:48.975Z,41.90
2023-04-07T04:22:15.476Z,41.33
2023-04-07T04:24:42.157Z,41.27
2023-04-07T04:27:08.640Z,40.46
2023-04-07T04:29:35.181Z,39.84
2023-04-07T04:32:01.676Z,39.06
2023-04-07T04:34:28.172Z,38.41
2023-04-07T04:36:54.694Z,37.70
2023-04-07T04:39:21.238Z,37.34
2023-04-07T04:41:47.680Z,37.15
2023-04-07T04:44:14.191Z,36.99
2023-04-07T04:46:40.767Z,36.90
2023-04-07T04:49:07.326Z,36.90
2023-04-07T04:51:33.784Z,36.52
2023-04-07T04:54:00.752Z,36.44
2023-04-07T04:56:27.212Z,36.67
2023-04-07T04:58:53.737Z,36.74
2023-04-07T05:01:20.393Z,36.74
2023-04-07T05:03:46.989Z,36.61
2023-04-07T05:06:13.572Z,36.79
2023-04-07T05:08:40.036Z,36.71
2023-04-07T05:11:06.482Z,36.70
2023-04-07T05:13:33.138Z,36.65
2023-04-07T05:15:59.654Z,37.02
2023-04-07T05:18:26.320Z,36.93
2023-04-07T05:20:52.815Z,36.90
2023-04-07T05:23:19.333Z,36.87
2023-04-07T05:25:45.876Z,37.19
2023-04-07T05:28:12.361Z,37.00
2023-04-07T05:30:38.916Z,37.34
2023-04-07T05:33:05.681Z,37.21
2023-04-07T05:35:32.333Z,37.32
2023-04-07T05:37:58.882Z,37.47
2023-04-07T05:40:25.554Z,37.68
2023-04-07T05:42:52.094Z,37.67
2023-04-07T05:45:18.664Z,37.67
2023-04-07T05:47:47.492Z,37.57
2023-04-07T05:50:14.756Z,37.62
2023-04-07T05:52:41.263Z,37.91
2023-04-07T05:55:08.125Z,37.72
2023-04-07T05:57:34.888Z,37.79
2023-04-07T06:00:01.479Z,38.16
2023-04-07T06:02:28.158Z,38.09
2023-04-07T06:04:54.950Z,38.07
2023-04-07T06:07:21.649Z,38.12
2023-04-07T06:09:48.188Z,38.39
2023-04-07T06:12:15.424Z,38.38
2023-04-07T06:14:41.912Z,38.32
2023-04-07T06:17:08.528Z,38.36
2023-04-07T06:19:35.234Z,38.28
2023-04-07T06:22:02.053Z,38.25
2023-04-07T06:24:28.912Z,38.66
